Corona Range LRC Data

Date Time Air Temperature Relative Humidity Dewpoint Windchill Heat Index Wind Speed Wind Dir. Rain Solar Radiation Soil Temperature
2m 2m 3m 3m 10cm
US/Mountain F % F F F MPH deg in MJ/m^2 F
max avg avg
2021-09-15 00:05:00 68.1 38.1 41.6 68.1 68.1 10.1 15.3 11.3 25.0 10.9 0.00 0.0000000 77.2
2021-09-15 00:10:00 66.7 47.7 46.2 66.7 66.7 16.0 22.3 15.4 20.8 6.3 0.00 0.0000000 77.1
2021-09-15 00:15:00 65.8 50.1 46.7 65.8 65.8 21.4 25.1 16.8 9.6 3.9 0.00 0.0000000 77.1
2021-09-15 00:20:00 65.0 51.9 46.9 65.0 65.0 12.4 21.4 16.1 5.9 7.1 0.00 0.0000000 77.0
2021-09-15 00:25:00 64.3 53.5 47.1 64.3 64.3 14.2 19.4 14.6 26.6 14.5 0.00 0.0000000 76.9
2021-09-15 00:30:00 64.0 54.3 47.2 64.0 64.0 14.9 18.0 14.3 9.9 20.4 0.00 0.0000000 76.8
2021-09-15 00:35:00 63.7 54.9 47.2 63.7 63.7 13.0 20.3 16.0 17.9 19.0 0.00 0.0000000 76.8
2021-09-15 00:40:00 63.4 56.1 47.4 63.4 63.4 16.5 20.1 15.6 20.9 20.2 0.00 0.0000000 76.7
2021-09-15 00:45:00 62.9 57.5 47.7 62.9 62.9 13.7 19.2 15.9 2.3 12.3 0.00 0.0000000 76.6
2021-09-15 00:50:00 62.5 59.0 48.0 62.5 62.5 15.5 19.2 15.0 4.7 5.6 0.00 0.0000000 76.6
2021-09-15 00:55:00 62.4 58.6 47.7 62.4 62.4 10.8 15.3 12.1 10.4 351.2 0.00 0.0000000 76.5
2021-09-15 01:00:00 62.0 60.2 48.1 62.0 62.0 13.0 19.9 15.2 9.5 16.3 0.00 0.0000000 76.5
2021-09-15 01:05:00 61.6 61.1 48.1 61.6 61.6 12.1 21.0 16.5 13.8 15.2 0.00 0.0000000 76.4
2021-09-15 01:10:00 61.4 61.4 48.0 61.4 61.4 14.0 18.7 15.1 25.0 15.2 0.00 0.0000000 76.3
2021-09-15 01:15:00 61.2 62.4 48.2 61.2 61.2 13.3 18.7 14.8 24.5 17.1 0.00 0.0000000 76.3
2021-09-15 01:20:00 60.9 63.5 48.4 60.9 60.9 15.5 18.1 13.9 27.9 25.1 0.00 0.0000000 76.2
2021-09-15 01:25:00 60.5 64.4 48.4 60.5 60.5 12.4 20.3 12.6 8.2 19.6 0.00 0.0000000 76.2
2021-09-15 01:30:00 60.2 64.9 48.4 60.2 60.2 12.2 16.0 11.9 19.5 20.6 0.00 0.0000000 76.1
2021-09-15 01:35:00 59.9 65.5 48.3 59.9 59.9 10.6 19.9 12.7 24.6 20.3 0.00 0.0000000 76.1
2021-09-15 01:40:00 59.6 66.3 48.3 59.6 59.6 10.6 15.1 11.3 14.5 20.7 0.00 0.0000000 76.0
2021-09-15 01:45:00 59.5 66.8 48.4 59.5 59.5 11.7 14.4 11.3 36.1 18.5 0.00 0.0000000 75.9
2021-09-15 01:50:00 59.3 67.1 48.4 59.3 59.3 10.8 15.5 12.5 9.6 17.0 0.00 0.0000000 75.9
2021-09-15 01:55:00 59.0 67.6 48.3 59.0 59.0 9.2 15.1 11.4 12.3 17.1 0.00 0.0000000 75.8
2021-09-15 02:00:00 58.8 68.4 48.4 58.8 58.8 14.4 15.3 11.6 16.8 20.7 0.00 0.0000000 75.8
2021-09-15 02:05:00 58.8 68.5 48.5 58.8 58.8 11.9 16.4 12.8 27.6 18.7 0.00 0.0000000 75.7
2021-09-15 02:10:00 58.5 69.4 48.5 58.5 58.5 14.4 14.4 11.1 13.1 15.5 0.00 0.0000000 75.7
2021-09-15 02:15:00 58.6 69.2 48.5 58.6 58.6 8.1 15.3 12.2 0.1 16.4 0.00 0.0000000 75.6
2021-09-15 02:20:00 58.0 70.2 48.3 58.0 58.0 11.2 13.0 10.2 27.3 12.8 0.00 0.0000000 75.5
2021-09-15 02:25:00 58.0 70.1 48.4 58.0 58.0 12.2 15.3 11.4 11.2 15.1 0.00 0.0000000 75.5
2021-09-15 02:30:00 58.0 70.3 48.4 58.0 58.0 12.6 14.0 11.5 33.7 15.8 0.00 0.0000000 75.4
2021-09-15 02:35:00 57.9 70.5 48.3 57.9 57.9 8.5 13.5 10.9 21.6 16.2 0.00 0.0000000 75.3
2021-09-15 02:40:00 57.6 70.9 48.3 57.6 57.6 11.0 13.3 10.5 21.4 18.9 0.00 0.0000000 75.3
2021-09-15 02:45:00 57.5 71.4 48.3 57.5 57.5 13.9 15.6 10.6 57.1 21.3 0.00 0.0000000 75.2
2021-09-15 02:50:00 57.4 71.5 48.2 57.4 57.4 11.5 15.5 10.6 27.8 27.4 0.00 0.0000000 75.2
2021-09-15 02:55:00 57.3 72.0 48.4 57.3 57.3 13.9 14.0 10.4 20.6 29.2 0.00 0.0000000 75.1
2021-09-15 03:00:00 57.0 72.8 48.4 57.0 57.0 11.5 11.7 9.3 33.3 28.9 0.00 0.0000000 75.1
2021-09-15 03:05:00 56.9 73.0 48.3 56.9 56.9 9.0 11.5 9.5 6.2 23.0 0.00 0.0000000 75.0
2021-09-15 03:10:00 56.5 73.9 48.3 56.5 56.5 9.9 12.2 8.7 41.2 24.4 0.00 0.0000000 74.9
2021-09-15 03:15:00 56.4 74.0 48.2 56.4 56.4 6.7 12.2 8.7 22.2 30.3 0.00 0.0000000 74.9
2021-09-15 03:20:00 56.2 75.1 48.4 56.2 56.2 6.5 9.4 7.3 16.6 26.6 0.00 0.0000000 74.8
2021-09-15 03:25:00 56.1 75.2 48.3 56.1 56.1 7.4 9.7 7.3 31.3 27.1 0.00 0.0000000 74.7
2021-09-15 03:30:00 56.0 75.9 48.5 56.0 56.0 7.4 9.0 7.1 12.5 35.0 0.00 0.0000000 74.7
2021-09-15 03:35:00 55.8 76.2 48.4 55.8 55.8 7.4 9.0 6.9 19.8 31.8 0.00 0.0000000 74.6
2021-09-15 03:40:00 55.6 76.6 48.3 55.6 55.6 5.3 7.8 6.3 28.7 26.9 0.00 0.0000000 74.6
2021-09-15 03:45:00 55.4 77.1 48.3 55.4 55.4 5.6 9.0 6.1 39.3 24.9 0.00 0.0000000 74.5
2021-09-15 03:50:00 55.1 78.1 48.4 55.1 55.1 5.1 7.2 5.1 33.1 30.9 0.00 0.0000000 74.4
2021-09-15 03:55:00 54.7 78.5 48.1 54.7 54.7 4.2 5.8 4.9 15.1 22.3 0.00 0.0000000 74.4
2021-09-15 04:00:00 54.6 79.1 48.2 54.6 54.6 4.0 5.8 4.5 30.5 22.4 0.00 0.0000000 74.3
2021-09-15 04:05:00 54.2 79.9 48.1 54.2 54.2 3.3 4.4 3.2 17.4 17.7 0.00 0.0000000 74.3
2021-09-15 04:10:00 54.0 80.1 48.0 54.0 54.0 2.8 4.2 2.6 64.3 30.8 0.00 0.0000000 74.2
2021-09-15 04:15:00 54.0 80.6 48.1 54.0 54.0 2.6 3.3 2.4 103.8 58.7 0.00 0.0000000 74.1
2021-09-15 04:20:00 53.8 80.9 48.1 53.8 53.8 1.2 3.1 2.4 100.8 100.2 0.00 0.0000000 74.1
2021-09-15 04:25:00 53.6 81.3 48.0 53.6 53.6 1.0 1.2 0.7 42.8 51.7 0.00 0.0000000 74.0
2021-09-15 04:30:00 53.4 81.8 48.0 53.4 53.4 2.2 2.2 0.8 47.7 88.7 0.00 0.0000000 74.0
2021-09-15 04:35:00 53.2 82.5 48.0 53.2 53.2 0.0 2.2 1.3 168.1 126.6 0.00 0.0000000 73.9
2021-09-15 04:40:00 53.2 83.1 48.2 53.2 53.2 0.8 1.0 0.1 218.2 218.4 0.00 0.0000000 73.8
2021-09-15 04:45:00 53.3 81.8 47.9 53.3 53.3 2.4 2.4 1.6 243.2 230.1 0.00 0.0000000 73.8
2021-09-15 04:50:00 52.9 82.7 47.8 52.9 52.9 2.1 3.0 2.3 278.0 256.4 0.00 0.0000000 73.7
2021-09-15 04:55:00 52.4 83.3 47.5 52.4 52.4 0.0 2.1 0.8 348.7 292.4 0.00 0.0000000 73.7
2021-09-15 05:00:00 52.4 84.2 47.8 52.4 52.4 0.0 0.0 0.0 43.5 0.0 0.00 0.0000000 73.6
2021-09-15 05:05:00 52.5 85.6 48.3 52.5 52.5 0.0 0.0 0.0 332.3 0.0 0.00 0.0000000 73.5
2021-09-15 05:10:00 52.3 82.7 47.2 52.3 52.3 0.0 0.0 0.0 168.9 0.0 0.00 0.0000000 73.5
2021-09-15 05:15:00 51.1 85.2 46.8 51.1 51.1 1.5 1.9 1.7 219.6 168.8 0.00 0.0000000 73.4
2021-09-15 05:20:00 50.7 86.3 46.7 50.7 50.7 2.4 2.6 2.3 254.2 242.1 0.00 0.0000000 73.3
2021-09-15 05:25:00 51.2 88.7 48.0 51.2 51.2 1.5 2.6 2.1 218.8 233.2 0.00 0.0000000 73.3
2021-09-15 05:30:00 51.2 86.0 47.1 51.2 51.2 0.0 1.7 1.1 181.4 164.4 0.00 0.0000000 73.2
2021-09-15 05:35:00 50.7 87.1 47.0 50.7 50.7 2.6 2.6 1.2 211.5 219.7 0.00 0.0000000 73.1
2021-09-15 05:40:00 50.8 86.3 46.9 50.8 50.8 2.1 2.4 2.2 229.2 223.2 0.00 0.0000000 73.1
2021-09-15 05:45:00 50.7 87.8 47.2 50.7 50.7 1.9 2.1 1.9 220.5 243.5 0.00 0.0000000 73.0
2021-09-15 05:50:00 50.7 84.8 46.3 50.7 50.7 2.6 2.8 2.2 162.1 220.9 0.00 0.0000000 72.9
2021-09-15 05:55:00 50.5 87.4 46.9 50.5 50.5 2.1 3.0 2.6 291.4 257.3 0.00 0.0000000 72.9
2021-09-15 06:00:00 50.0 87.6 46.5 50.0 50.0 3.8 3.8 2.8 282.3 275.1 0.00 0.0000000 72.8
2021-09-15 06:05:00 49.3 88.7 46.1 47.9 49.3 4.2 4.2 3.8 280.2 278.3 0.00 0.0000000 72.7
2021-09-15 06:10:00 49.9 88.6 46.7 49.2 49.9 3.5 4.4 3.7 292.3 281.2 0.00 0.0000000 72.6
2021-09-15 06:15:00 49.4 87.2 45.8 48.1 49.4 4.0 4.0 3.3 244.8 275.9 0.00 0.0000000 72.6
2021-09-15 06:20:00 48.7 89.4 45.7 48.0 48.7 3.1 4.0 3.5 276.1 257.2 0.00 0.0000000 72.5
2021-09-15 06:25:00 48.2 89.4 45.3 48.2 48.2 1.7 3.5 2.6 255.5 250.0 0.00 0.0000000 72.4
2021-09-15 06:30:00 47.8 89.9 45.0 47.8 47.8 2.8 2.8 2.2 237.7 228.7 0.00 0.0000000 72.4
2021-09-15 06:35:00 47.8 89.4 44.8 47.8 47.8 2.6 2.8 2.6 242.7 251.3 0.00 0.0000000 72.3
2021-09-15 06:40:00 47.6 89.9 44.7 47.6 47.6 2.4 2.8 2.6 237.3 219.3 0.00 0.0000000 72.2
2021-09-15 06:45:00 47.5 90.6 44.9 47.5 47.5 3.0 3.3 2.9 241.6 215.8 0.00 0.0000000 72.1
2021-09-15 06:50:00 47.8 90.8 45.2 47.8 47.8 3.0 3.1 2.8 218.5 209.5 0.00 0.0000033 72.1
2021-09-15 06:55:00 47.8 90.8 45.2 46.8 47.8 3.3 3.5 3.1 189.2 205.6 0.00 0.0008873 72.0
2021-09-15 07:00:00 48.2 90.8 45.6 48.2 48.2 2.4 3.3 2.8 246.3 220.1 0.00 0.0025865 71.9
2021-09-15 07:05:00 48.7 90.6 46.1 48.7 48.7 2.2 3.0 2.5 257.8 229.5 0.00 0.0028181 71.9
2021-09-15 07:10:00 49.5 90.0 46.7 49.5 49.5 1.5 2.2 1.8 212.0 218.8 0.00 0.0041350 71.8
2021-09-15 07:15:00 50.5 88.7 47.2 50.5 50.5 2.6 2.6 2.0 214.1 218.1 0.00 0.0058231 71.7
2021-09-15 07:20:00 51.4 87.1 47.7 51.4 51.4 2.8 2.8 2.4 234.2 218.8 0.00 0.0067389 71.7
2021-09-15 07:25:00 52.3 84.0 47.6 52.3 52.3 0.0 3.0 2.1 225.6 200.4 0.00 0.0084124 71.6
2021-09-15 07:30:00 52.8 82.9 47.7 52.8 52.8 2.4 3.0 1.7 169.2 207.5 0.00 0.0095598 71.5
2021-09-15 07:35:00 53.6 82.6 48.5 53.6 53.6 1.5 3.1 2.2 226.1 203.3 0.00 0.0092942 71.5
2021-09-15 07:40:00 54.6 82.2 49.2 54.6 54.6 0.0 1.5 0.6 273.4 247.6 0.00 0.0114762 71.4
2021-09-15 07:45:00 55.0 79.1 48.6 55.0 55.0 1.3 2.2 1.6 187.0 211.6 0.00 0.0128961 71.3
2021-09-15 07:50:00 55.6 81.9 50.2 55.6 55.6 1.2 1.2 0.2 12.5 118.1 0.00 0.0172782 71.3
2021-09-15 07:55:00 56.4 81.7 50.9 56.4 56.4 2.1 2.2 1.6 16.0 68.9 0.00 0.0232509 71.2
2021-09-15 08:00:00 56.9 81.5 51.3 56.9 56.9 1.0 3.1 2.0 57.8 32.3 0.00 0.0259901 71.1
2021-09-15 08:05:00 57.5 81.3 51.9 57.5 57.5 1.7 4.2 2.0 129.4 41.8 0.00 0.0286635 71.1
2021-09-15 08:10:00 57.4 85.1 53.0 57.4 57.4 2.4 4.9 3.2 5.3 32.5 0.00 0.0292011 71.1
2021-09-15 08:15:00 57.9 83.6 53.0 57.9 57.9 2.6 3.7 2.8 58.8 37.4 0.00 0.0314842 71.0
2021-09-15 08:20:00 58.1 81.8 52.6 58.1 58.1 3.5 4.4 2.9 38.0 42.7 0.00 0.0298687 71.0
2021-09-15 08:25:00 57.9 82.2 52.5 57.9 57.9 4.2 5.5 4.0 19.7 33.1 0.00 0.0321153 71.0
2021-09-15 08:30:00 58.0 82.2 52.6 58.0 58.0 4.0 5.8 4.3 11.3 30.5 0.00 0.0351026 70.9
2021-09-15 08:35:00 58.6 81.5 52.9 58.6 58.6 6.5 6.5 4.2 93.4 60.4 0.00 0.0358953 70.9
2021-09-15 08:40:00 58.7 82.0 53.2 58.7 58.7 3.1 7.2 3.7 70.5 73.3 0.00 0.0355906 70.8
2021-09-15 08:45:00 58.5 83.2 53.4 58.5 58.5 5.5 8.5 5.7 99.6 79.3 0.00 0.0402212 70.8
2021-09-15 08:50:00 59.3 81.9 53.8 59.3 59.3 4.4 7.8 5.1 130.0 79.4 0.00 0.0658063 70.8
2021-09-15 08:55:00 60.0 80.2 53.8 60.0 60.0 2.2 6.9 4.6 33.3 77.8 0.00 0.0690449 70.8
2021-09-15 09:00:00 61.1 76.1 53.5 61.1 61.1 5.1 7.6 4.1 101.2 73.3 0.00 0.0640541 70.8
2021-09-15 09:05:00 60.3 79.3 53.8 60.3 60.3 5.5 7.6 5.7 22.7 75.1 0.00 0.0601557 70.8
2021-09-15 09:10:00 60.3 79.8 54.0 60.3 60.3 5.8 8.5 5.9 54.8 80.8 0.00 0.0674669 70.8
2021-09-15 09:15:00 60.5 79.8 54.2 60.5 60.5 3.5 7.6 4.9 72.1 88.7 0.00 0.0764691 70.8
2021-09-15 09:20:00 61.7 75.8 54.0 61.7 61.7 5.1 8.3 5.7 122.1 111.9 0.00 0.0970761 70.8
2021-09-15 09:25:00 61.8 74.5 53.6 61.8 61.8 6.7 8.1 5.9 67.1 75.5 0.00 0.0955600 70.8
2021-09-15 09:30:00 62.1 74.2 53.8 62.1 62.1 7.2 8.8 6.6 123.1 101.4 0.00 0.0951165 70.8
2021-09-15 09:35:00 62.4 72.2 53.3 62.4 62.4 7.8 10.3 6.9 86.4 83.1 0.00 0.0976297 70.9
2021-09-15 09:40:00 62.0 74.1 53.6 62.0 62.0 4.4 9.6 6.6 138.2 101.6 0.00 0.0996610 70.9
2021-09-15 09:45:00 62.9 71.9 53.7 62.9 62.9 4.9 7.2 4.8 30.7 99.2 0.00 0.1008649 70.9
2021-09-15 09:50:00 63.8 69.1 53.5 63.8 63.8 6.0 8.0 6.0 171.2 73.7 0.00 0.1055471 71.0
2021-09-15 09:55:00 64.1 69.8 54.1 64.1 64.1 6.5 9.4 6.5 84.6 92.6 0.00 0.1081912 71.0
2021-09-15 10:00:00 64.1 68.9 53.6 64.1 64.1 8.1 9.0 6.0 127.1 96.1 0.00 0.1106402 71.0
2021-09-15 10:05:00 65.0 67.4 54.0 65.0 65.0 8.5 9.6 5.1 119.9 89.9 0.00 0.1137690 71.1
2021-09-15 10:10:00 64.7 69.4 54.4 64.7 64.7 5.3 10.1 6.9 100.7 91.4 0.00 0.1160318 71.1
2021-09-15 10:15:00 65.2 68.2 54.5 65.2 65.2 8.5 9.2 6.5 84.8 98.6 0.00 0.1191819 71.2
2021-09-15 10:20:00 64.7 69.4 54.4 64.7 64.7 5.3 9.2 7.0 51.9 71.0 0.00 0.0949175 71.2
2021-09-15 10:25:00 65.2 67.3 54.0 65.2 65.2 10.6 10.6 6.9 142.7 90.8 0.00 0.1235271 71.3
2021-09-15 10:30:00 65.2 68.4 54.5 65.2 65.2 3.3 10.3 6.8 85.6 91.0 0.00 0.1257864 71.4
2021-09-15 10:35:00 66.7 64.4 54.3 66.7 66.7 7.4 9.4 5.8 146.6 66.7 0.00 0.1281342 71.4
2021-09-15 10:40:00 66.6 66.0 54.9 66.6 66.6 4.2 9.2 6.5 72.5 81.1 0.00 0.1299544 71.5
2021-09-15 10:45:00 66.5 64.7 54.2 66.5 66.5 6.2 9.7 7.5 30.9 78.8 0.00 0.1323476 71.6
2021-09-15 10:50:00 66.3 65.5 54.4 66.3 66.3 6.5 10.8 6.9 113.6 87.1 0.00 0.1343564 71.7
2021-09-15 10:55:00 66.9 64.6 54.5 66.9 66.9 10.1 10.1 5.9 14.8 73.3 0.00 0.1364131 71.8
2021-09-15 11:00:00 67.1 62.1 53.7 67.1 67.1 7.6 9.6 6.4 105.1 88.9 0.00 0.1375750 71.9
2021-09-15 11:05:00 67.7 60.7 53.7 67.7 67.7 6.9 9.7 6.7 127.8 87.5 0.00 0.1399828 72.0
2021-09-15 11:10:00 67.0 63.6 54.2 67.0 67.0 1.7 9.2 5.4 76.7 94.8 0.00 0.1404023 72.1
2021-09-15 11:15:00 68.2 58.4 53.1 68.2 68.2 5.1 8.8 5.5 93.6 81.0 0.00 0.1424058 72.2
2021-09-15 11:20:00 68.1 60.3 53.8 68.1 68.1 3.1 9.6 5.7 204.6 106.6 0.00 0.1439111 72.3
2021-09-15 11:25:00 68.2 59.8 53.7 68.2 68.2 3.5 7.2 4.9 92.2 84.8 0.00 0.1447379 72.4
2021-09-15 11:30:00 68.9 59.3 54.1 68.9 68.9 6.0 7.8 6.2 77.7 79.1 0.00 0.1464385 72.6
2021-09-15 11:35:00 70.2 55.4 53.5 70.2 70.2 6.7 8.3 5.4 113.1 94.3 0.00 0.1486129 72.7
2021-09-15 11:40:00 69.4 57.1 53.5 69.4 69.4 2.8 10.1 5.4 53.3 84.0 0.00 0.1488699 72.9
2021-09-15 11:45:00 69.4 56.5 53.3 69.4 69.4 5.6 10.6 6.8 233.1 112.2 0.00 0.1510245 73.0
2021-09-15 11:50:00 70.4 56.2 54.1 70.4 70.4 9.2 9.6 7.3 125.2 85.3 0.00 0.1534312 73.2
2021-09-15 11:55:00 70.2 54.7 53.2 70.2 70.2 4.6 9.4 4.6 42.4 76.4 0.00 0.1601566 73.3
2021-09-15 12:00:00 70.6 56.3 54.4 70.6 70.6 8.5 9.9 5.8 154.1 109.1 0.00 0.1648181 73.5
2021-09-15 12:05:00 70.3 56.4 54.0 70.3 70.3 7.6 10.1 6.4 46.5 106.8 0.00 0.1351893 73.7
2021-09-15 12:10:00 70.1 55.7 53.6 70.1 70.1 3.5 9.9 6.0 124.5 114.3 0.00 0.1303923 73.9
2021-09-15 12:15:00 70.9 53.5 53.1 70.9 70.9 7.2 9.0 6.6 115.7 92.1 0.00 0.1551561 74.0
2021-09-15 12:20:00 71.6 53.4 53.8 71.6 71.6 7.4 8.7 6.1 75.6 71.9 0.00 0.1443354 74.2
2021-09-15 12:25:00 72.1 53.2 54.1 72.1 72.1 7.6 9.6 7.0 38.6 109.1 0.00 0.1538416 74.4
2021-09-15 12:30:00 72.1 52.6 53.8 72.1 72.1 4.4 9.9 6.0 55.9 78.0 0.00 0.1608779 74.6
2021-09-15 12:35:00 72.4 52.9 54.2 72.4 72.4 3.3 10.5 5.4 96.3 91.2 0.00 0.1636853 74.8
2021-09-15 12:40:00 72.7 50.8 53.5 72.7 72.7 6.0 11.2 7.8 70.5 102.2 0.00 0.1581505 75.0
2021-09-15 12:45:00 72.4 50.6 53.0 72.4 72.4 7.2 9.0 6.3 28.4 82.2 0.00 0.1579995 75.1
2021-09-15 12:50:00 73.3 48.8 52.9 73.3 73.3 6.9 8.7 5.8 131.3 109.1 0.00 0.1622266 75.4
2021-09-15 12:55:00 72.5 47.8 51.6 72.5 72.5 4.2 11.5 6.7 150.2 98.5 0.00 0.1594182 75.5
2021-09-15 13:00:00 72.5 50.8 53.2 72.5 72.5 6.5 12.1 6.7 34.3 99.8 0.00 0.1424172 75.7
2021-09-15 13:05:00 73.2 49.5 53.2 73.2 73.2 5.1 11.5 6.3 102.3 98.4 0.00 0.1599979 75.9
2021-09-15 13:10:00 73.2 48.0 52.3 73.2 73.2 5.8 9.9 6.5 88.3 102.1 0.00 0.1574929 76.1
2021-09-15 13:15:00 73.0 45.3 50.6 73.0 73.0 9.9 10.1 7.7 106.4 82.1 0.00 0.1585621 76.4
2021-09-15 13:20:00 73.7 48.0 52.8 73.7 73.7 4.6 9.2 6.6 67.8 94.2 0.00 0.1573331 76.5
2021-09-15 13:25:00 74.5 47.5 53.2 74.5 74.5 6.0 10.8 7.2 31.0 99.5 0.00 0.1575558 76.8
2021-09-15 13:30:00 74.2 47.5 53.0 74.2 74.2 6.2 12.4 6.9 66.3 107.0 0.00 0.1570111 77.0
2021-09-15 13:35:00 73.8 47.2 52.4 73.8 73.8 3.1 12.2 7.8 56.5 76.7 0.00 0.1566703 77.2
2021-09-15 13:40:00 74.4 44.7 51.5 74.4 74.4 7.4 9.2 5.8 42.3 85.4 0.00 0.1548473 77.4
2021-09-15 13:45:00 75.1 47.0 53.5 75.1 75.1 8.0 12.1 7.4 121.8 104.3 0.00 0.1538055 77.6
2021-09-15 13:50:00 74.5 48.1 53.6 74.5 74.5 9.2 11.7 8.2 46.2 104.4 0.00 0.1537672 77.8
2021-09-15 13:55:00 76.1 45.0 53.2 76.1 76.1 8.7 9.7 7.1 131.5 88.9 0.00 0.1534066 78.0
2021-09-15 14:00:00 75.8 44.9 52.9 75.8 75.8 7.1 11.5 7.7 119.4 93.8 0.00 0.1518180 78.2
2021-09-15 14:05:00 75.5 45.9 53.2 75.5 75.5 7.8 11.9 8.3 29.7 102.6 0.00 0.1505938 78.4
2021-09-15 14:10:00 75.8 43.8 52.2 75.8 75.8 10.5 10.8 7.3 81.5 108.5 0.00 0.1493761 78.6
2021-09-15 14:15:00 75.2 44.3 51.9 75.2 75.2 5.6 12.1 8.2 123.3 105.2 0.00 0.1475670 78.8
2021-09-15 14:20:00 75.9 42.1 51.2 75.9 75.9 9.9 10.6 8.0 135.9 105.4 0.00 0.1468239 79.1
2021-09-15 14:25:00 76.5 41.3 51.3 76.5 76.5 9.4 11.9 6.9 92.7 97.6 0.00 0.1455202 79.3
2021-09-15 14:30:00 75.8 44.6 52.7 75.8 75.8 8.7 12.1 8.5 145.3 103.1 0.00 0.1432690 79.4
2021-09-15 14:35:00 76.1 43.3 52.2 76.1 76.1 7.4 12.6 8.2 136.7 97.3 0.00 0.1418269 79.6
2021-09-15 14:40:00 76.6 42.9 52.4 76.6 76.6 8.0 11.9 8.9 141.4 109.2 0.00 0.1402888 79.8
2021-09-15 14:45:00 76.3 42.6 51.9 76.3 76.3 5.6 14.0 8.6 135.5 104.1 0.00 0.1406983 80.0
2021-09-15 14:50:00 77.5 39.5 50.9 77.5 77.5 8.0 12.1 7.6 114.4 94.1 0.00 0.1399295 80.3
2021-09-15 14:55:00 76.7 40.5 51.0 76.7 76.7 8.0 13.0 8.8 66.9 127.8 0.00 0.1372373 80.4
2021-09-15 15:00:00 77.4 38.2 49.9 77.4 77.4 8.5 13.1 9.4 103.6 113.1 0.00 0.1352132 80.6
2021-09-15 15:05:00 76.9 40.5 51.1 76.9 76.9 9.7 12.1 8.0 122.4 128.0 0.00 0.1332155 80.8
2021-09-15 15:10:00 77.5 39.3 50.8 77.5 77.5 8.0 14.0 10.2 70.5 98.1 0.00 0.1311551 81.0
2021-09-15 15:15:00 78.4 38.0 50.7 78.4 78.4 9.6 12.6 9.2 148.2 118.2 0.00 0.1281394 81.2
2021-09-15 15:20:00 78.1 38.4 50.7 78.1 78.1 9.0 10.5 8.0 123.1 112.7 0.00 0.1254770 81.4
2021-09-15 15:25:00 78.8 36.3 49.9 78.8 78.8 11.2 11.2 8.2 59.4 86.9 0.00 0.1235364 81.5
2021-09-15 15:30:00 78.8 35.6 49.3 78.8 78.8 6.2 13.0 8.8 127.9 119.3 0.00 0.1206455 81.7
2021-09-15 15:35:00 78.7 36.9 50.2 78.7 78.7 10.5 15.8 10.3 79.2 97.6 0.00 0.1181301 81.8
2021-09-15 15:40:00 78.6 36.6 49.9 78.6 78.6 9.2 13.3 9.5 139.5 109.7 0.00 0.1157045 82.0
2021-09-15 15:45:00 78.3 36.9 49.9 78.3 78.3 8.1 13.5 9.5 127.9 135.3 0.00 0.1130783 82.2
2021-09-15 15:50:00 79.3 35.0 49.2 79.3 79.3 11.2 13.3 8.5 136.5 101.6 0.00 0.1097662 82.3
2021-09-15 15:55:00 78.8 35.4 49.2 78.8 78.8 10.5 14.2 10.4 47.1 95.3 0.00 0.1071423 82.5
2021-09-15 16:00:00 78.7 35.3 49.0 78.7 78.7 10.6 13.5 9.3 118.7 103.2 0.00 0.1053118 82.6
2021-09-15 16:05:00 79.1 37.0 50.6 79.1 79.1 10.6 14.7 9.5 102.6 89.7 0.00 0.1022052 82.7
2021-09-15 16:10:00 78.7 34.8 48.7 78.7 78.7 6.5 12.8 9.2 107.6 103.5 0.00 0.0989849 82.9
2021-09-15 16:15:00 79.3 34.5 48.8 79.3 79.3 10.6 11.5 8.9 74.6 110.4 0.00 0.0954442 83.0
2021-09-15 16:20:00 78.7 33.6 47.6 78.7 78.7 9.6 12.2 9.5 72.6 94.3 0.00 0.0926113 83.2
2021-09-15 16:25:00 78.4 35.4 48.8 78.4 78.4 10.8 15.3 9.1 145.1 104.3 0.00 0.0900824 83.3
2021-09-15 16:30:00 78.9 36.2 49.8 78.9 78.9 14.7 14.7 9.5 126.8 106.0 0.00 0.0864018 83.4
2021-09-15 16:35:00 78.2 36.3 49.3 78.2 78.2 13.1 16.0 11.8 36.9 109.6 0.00 0.0829037 83.5
2021-09-15 16:40:00 78.2 36.4 49.4 78.2 78.2 11.9 14.9 10.4 127.2 105.9 0.00 0.0795731 83.6
2021-09-15 16:45:00 78.2 35.9 49.0 78.2 78.2 13.3 13.3 9.8 133.7 114.4 0.00 0.0765403 83.7
2021-09-15 16:50:00 78.1 34.5 47.9 78.1 78.1 10.3 13.9 10.8 37.8 110.1 0.00 0.0742508 83.8
2021-09-15 16:55:00 77.9 35.8 48.7 77.9 77.9 9.2 13.5 10.4 66.2 96.2 0.00 0.0711735 83.9
2021-09-15 17:00:00 77.8 36.1 48.8 77.8 77.8 10.1 14.9 11.7 109.3 102.0 0.00 0.0684894 84.0
2021-09-15 17:05:00 77.7 36.8 49.2 77.7 77.7 10.3 14.2 9.9 105.2 109.7 0.00 0.0656942 84.1
2021-09-15 17:10:00 77.6 37.2 49.4 77.6 77.6 10.1 15.1 11.4 57.4 97.1 0.00 0.0629877 84.1
2021-09-15 17:15:00 77.6 36.7 49.0 77.6 77.6 12.6 14.4 11.3 144.9 108.3 0.00 0.0603303 84.2
2021-09-15 17:20:00 77.6 37.4 49.6 77.6 77.6 14.7 14.7 10.9 132.5 100.4 0.00 0.0577100 84.2
2021-09-15 17:25:00 77.7 37.6 49.8 77.7 77.7 9.2 14.4 9.8 76.7 110.7 0.00 0.0555444 84.3
2021-09-15 17:30:00 77.2 36.5 48.6 77.2 77.2 11.2 14.0 10.5 132.4 108.2 0.00 0.0542402 84.3
2021-09-15 17:35:00 77.0 38.4 49.7 77.0 77.0 10.1 13.7 11.1 89.3 115.5 0.00 0.0576987 84.3
2021-09-15 17:40:00 77.4 38.3 50.0 77.4 77.4 10.6 12.8 10.5 138.7 95.5 0.00 0.0576562 84.4
2021-09-15 17:45:00 77.4 38.0 49.9 77.4 77.4 11.7 13.5 10.2 127.9 120.3 0.00 0.0525864 84.4
2021-09-15 17:50:00 77.2 38.5 50.0 77.2 77.2 10.6 16.0 10.4 126.1 106.7 0.00 0.0491710 84.4
2021-09-15 17:55:00 77.1 38.8 50.1 77.1 77.1 8.0 12.6 9.5 105.8 108.1 0.00 0.0478633 84.4
2021-09-15 18:00:00 77.7 37.7 49.9 77.7 77.7 10.6 11.5 8.4 137.5 106.9 0.00 0.0463980 84.4
2021-09-15 18:05:00 77.0 37.2 48.9 77.0 77.0 8.7 12.2 9.7 95.2 107.7 0.00 0.0446731 84.4
2021-09-15 18:10:00 77.2 35.5 47.8 77.2 77.2 10.5 12.4 8.9 53.1 114.7 0.00 0.0422312 84.4
2021-09-15 18:15:00 77.1 35.2 47.5 77.1 77.1 6.0 12.6 8.6 124.5 97.3 0.00 0.0377429 84.3
2021-09-15 18:20:00 77.2 35.5 47.8 77.2 77.2 8.3 11.2 7.7 87.4 110.4 0.00 0.0323011 84.3
2021-09-15 18:25:00 76.7 34.6 46.7 76.7 76.7 12.4 12.4 9.1 102.0 99.2 0.00 0.0263851 84.3
2021-09-15 18:30:00 76.3 35.0 46.6 76.3 76.3 9.2 13.5 9.4 163.6 113.6 0.00 0.0202051 84.2
2021-09-15 18:35:00 75.9 37.0 47.8 75.9 75.9 5.6 11.3 8.2 77.6 116.5 0.00 0.0153900 84.1
2021-09-15 18:40:00 75.4 37.1 47.4 75.4 75.4 12.1 12.1 7.0 162.2 110.7 0.00 0.0113652 84.1
2021-09-15 18:45:00 74.7 38.3 47.6 74.7 74.7 6.2 11.0 6.9 55.2 105.2 0.00 0.0082326 84.0
2021-09-15 18:50:00 74.1 38.9 47.4 74.1 74.1 5.1 8.7 5.7 114.7 107.3 0.00 0.0054816 84.0
2021-09-15 18:55:00 73.5 38.9 47.0 73.5 73.5 7.2 7.2 5.0 99.7 116.1 0.00 0.0028649 83.9
2021-09-15 19:00:00 73.0 39.3 46.8 73.0 73.0 3.7 6.9 5.4 40.9 127.4 0.00 0.0006316 83.9
2021-09-15 19:05:00 72.2 40.1 46.6 72.2 72.2 3.8 4.7 3.8 131.1 116.7 0.00 0.0000000 83.8
2021-09-15 19:10:00 71.7 40.9 46.7 71.7 71.7 2.6 4.0 3.3 112.5 133.2 0.00 0.0000000 83.7
2021-09-15 19:15:00 71.3 41.7 46.8 71.3 71.3 2.1 3.3 1.9 137.0 151.5 0.00 0.0000000 83.6
2021-09-15 19:20:00 70.6 42.4 46.7 70.6 70.6 2.6 3.0 2.4 161.9 148.5 0.00 0.0000000 83.6
2021-09-15 19:25:00 70.2 43.1 46.7 70.2 70.2 3.1 3.1 2.7 167.4 154.9 0.00 0.0000000 83.5
2021-09-15 19:30:00 69.6 43.6 46.5 69.6 69.6 3.5 3.7 3.1 98.3 139.9 0.00 0.0000000 83.4
2021-09-15 19:35:00 69.1 44.0 46.3 69.1 69.1 2.4 4.2 3.3 192.3 153.0 0.00 0.0000000 83.3
2021-09-15 19:40:00 68.6 44.6 46.2 68.6 68.6 3.1 3.3 2.8 121.7 171.0 0.00 0.0000000 83.2
2021-09-15 19:45:00 67.9 45.4 46.0 67.9 67.9 3.8 3.8 3.4 207.6 194.7 0.00 0.0000000 83.1
2021-09-15 19:50:00 67.9 44.8 45.6 67.9 67.9 3.0 4.2 3.4 223.1 213.2 0.00 0.0000000 83.0
2021-09-15 19:55:00 67.5 44.5 45.1 67.5 67.5 2.4 2.8 2.1 219.0 228.2 0.00 0.0000000 82.9
2021-09-15 20:00:00 67.7 44.4 45.2 67.7 67.7 2.2 2.8 2.1 89.8 155.4 0.00 0.0000000 82.8
2021-09-15 20:05:00 66.8 46.5 45.6 66.8 66.8 1.2 2.2 1.4 91.6 81.0 0.00 0.0000000 82.7
2021-09-15 20:10:00 66.5 46.6 45.5 66.5 66.5 0.0 1.2 0.2 108.6 91.6 0.00 0.0000000 82.6
2021-09-15 20:15:00 66.2 47.2 45.5 66.2 66.2 1.9 1.9 0.3 170.8 168.9 0.00 0.0000000 82.5
2021-09-15 20:20:00 66.6 44.5 44.3 66.6 66.6 3.7 3.7 2.7 198.0 167.7 0.00 0.0000000 82.4
2021-09-15 20:25:00 66.6 43.9 43.9 66.6 66.6 4.7 4.7 4.4 192.6 178.4 0.00 0.0000000 82.3
2021-09-15 20:30:00 65.9 42.9 42.8 65.9 65.9 4.2 4.7 4.1 116.7 161.3 0.00 0.0000000 82.2
2021-09-15 20:35:00 65.7 41.5 41.7 65.7 65.7 3.1 4.9 3.9 182.9 147.3 0.00 0.0000000 82.1
2021-09-15 20:40:00 65.8 41.0 41.5 65.8 65.8 2.4 4.0 2.9 206.1 169.3 0.00 0.0000000 82.0
2021-09-15 20:45:00 65.7 40.9 41.3 65.7 65.7 3.7 4.0 3.1 208.2 199.0 0.00 0.0000000 81.8
2021-09-15 20:50:00 65.0 41.4 41.0 65.0 65.0 2.2 4.2 2.9 201.8 231.2 0.00 0.0000000 81.7
2021-09-15 20:55:00 64.9 40.9 40.5 64.9 64.9 2.6 2.8 2.5 200.0 185.2 0.00 0.0000000 81.6
2021-09-15 21:00:00 64.5 42.5 41.2 64.5 64.5 2.6 2.6 1.7 176.9 154.8 0.00 0.0000000 81.5
2021-09-15 21:05:00 63.0 44.9 41.2 63.0 63.0 3.0 3.7 2.7 138.3 162.7 0.00 0.0000000 81.4
2021-09-15 21:10:00 62.7 44.2 40.6 62.7 62.7 3.0 3.5 3.0 93.6 148.1 0.00 0.0000000 81.2
2021-09-15 21:15:00 62.9 44.5 41.0 62.9 62.9 4.4 4.6 3.7 163.4 159.3 0.00 0.0000000 81.1
2021-09-15 21:20:00 61.9 46.0 40.9 61.9 61.9 4.2 4.9 4.0 72.2 151.2 0.00 0.0000000 81.0
2021-09-15 21:25:00 62.0 45.1 40.4 62.0 62.0 2.8 4.4 3.5 73.5 141.9 0.00 0.0000000 80.9
2021-09-15 21:30:00 62.5 43.7 40.1 62.5 62.5 2.2 3.8 3.1 122.2 143.0 0.00 0.0000000 80.7
2021-09-15 21:35:00 62.8 42.9 39.9 62.8 62.8 2.4 3.0 2.6 40.2 140.9 0.00 0.0000000 80.6
2021-09-15 21:40:00 62.9 42.5 39.8 62.9 62.9 2.1 2.8 2.3 204.4 189.0 0.00 0.0000000 80.4
2021-09-15 21:45:00 63.5 39.9 38.6 63.5 63.5 3.3 3.5 2.6 216.5 205.1 0.00 0.0000000 80.3
2021-09-15 21:50:00 64.7 37.9 38.5 64.7 64.7 2.8 3.7 3.2 200.4 155.5 0.00 0.0000000 80.2
2021-09-15 21:55:00 65.1 37.2 38.2 65.1 65.1 2.4 3.1 2.2 270.6 237.8 0.00 0.0000000 80.1
2021-09-15 22:00:00 65.6 36.7 38.4 65.6 65.6 2.8 4.0 2.8 236.1 227.9 0.00 0.0000000 80.0
2021-09-15 22:05:00 65.7 37.7 39.2 65.7 65.7 4.6 4.6 3.6 206.5 230.5 0.00 0.0000000 79.9
2021-09-15 22:10:00 66.6 36.6 39.3 66.6 66.6 2.8 6.3 4.4 234.1 230.9 0.00 0.0000000 79.7
2021-09-15 22:15:00 65.9 37.7 39.4 65.9 65.9 1.2 3.5 2.1 248.8 195.3 0.00 0.0000000 79.6
2021-09-15 22:20:00 66.7 36.1 38.9 66.7 66.7 3.5 5.3 2.9 228.9 239.7 0.00 0.0000000 79.5
2021-09-15 22:25:00 66.2 37.1 39.2 66.2 66.2 1.2 3.8 1.1 281.9 144.2 0.00 0.0000000 79.4
2021-09-15 22:30:00 66.5 37.1 39.5 66.5 66.5 1.5 4.2 2.4 72.3 250.7 0.00 0.0000000 79.2
2021-09-15 22:35:00 65.3 38.0 39.1 65.3 65.3 3.0 3.7 2.6 28.4 44.5 0.00 0.0000000 79.1
2021-09-15 22:40:00 64.7 39.5 39.6 64.7 64.7 2.2 3.0 2.3 52.3 40.7 0.00 0.0000000 79.0
2021-09-15 22:45:00 63.7 41.0 39.6 63.7 63.7 1.9 3.5 2.1 61.3 71.4 0.00 0.0000000 78.9
2021-09-15 22:50:00 63.9 41.1 39.8 63.9 63.9 2.1 3.5 2.6 135.4 53.7 0.00 0.0000000 78.8
2021-09-15 22:55:00 64.0 40.2 39.3 64.0 64.0 2.1 3.7 2.5 311.5 292.1 0.00 0.0000000 78.6
2021-09-15 23:00:00 65.4 38.1 39.2 65.4 65.4 1.7 5.6 2.6 278.0 293.1 0.00 0.0000000 78.5
2021-09-15 23:05:00 66.0 37.1 39.0 66.0 66.0 2.8 6.3 3.3 249.9 286.6 0.00 0.0000000 78.4
2021-09-15 23:10:00 65.6 37.5 38.9 65.6 65.6 4.2 4.9 4.2 268.0 236.4 0.00 0.0000000 78.3
2021-09-15 23:15:00 65.3 38.6 39.4 65.3 65.3 6.0 8.3 5.0 216.8 233.0 0.00 0.0000000 78.2
2021-09-15 23:20:00 67.6 36.6 40.1 67.6 67.6 8.7 12.8 9.1 134.1 207.5 0.00 0.0000000 78.1
2021-09-15 23:25:00 68.3 37.3 41.2 68.3 68.3 9.6 12.4 9.7 128.9 200.0 0.00 0.0000000 78.0
2021-09-15 23:30:00 68.2 38.0 41.6 68.2 68.2 6.7 14.7 10.5 228.3 212.3 0.00 0.0000000 77.8
2021-09-15 23:35:00 68.2 38.5 41.9 68.2 68.2 10.5 13.7 10.3 212.4 215.3 0.00 0.0000000 77.7
2021-09-15 23:40:00 68.2 38.8 42.1 68.2 68.2 11.7 12.8 10.6 233.1 212.1 0.00 0.0000000 77.6
2021-09-15 23:45:00 67.8 39.2 42.0 67.8 67.8 10.1 13.1 10.1 221.6 217.4 0.00 0.0000000 77.6
2021-09-15 23:50:00 67.8 38.8 41.8 67.8 67.8 9.0 12.4 9.5 218.6 210.9 0.00 0.0000000 77.4
2021-09-15 23:55:00 67.4 39.1 41.6 67.4 67.4 12.6 12.6 8.8 264.4 217.4 0.00 0.0000000 77.3
2021-09-16 00:00:00 67.6 39.2 41.9 67.6 67.6 9.7 13.7 9.8 211.3 217.7 0.00 0.0000000 77.2

Data is courtesy of the NM Climate Center. DO NOT USE IN LEGAL PROCEEDINGS.